createdAt,value
2019-03-29T00:02:19.671Z,19.10
2019-03-29T00:07:12.455Z,19.10
2019-03-29T00:09:38.505Z,19.10
2019-03-29T00:12:05.205Z,19.10
2019-03-29T00:14:32.436Z,19.10
2019-03-29T00:16:58.571Z,19.10
2019-03-29T00:19:24.656Z,19.10
2019-03-29T00:21:50.707Z,19.10
2019-03-29T00:24:16.755Z,19.10
2019-03-29T00:29:09.812Z,19.10
2019-03-29T00:31:35.897Z,19.10
2019-03-29T00:34:02.266Z,19.00
2019-03-29T00:36:28.600Z,19.00
2019-03-29T00:38:54.651Z,19.00
2019-03-29T00:41:20.732Z,19.00
2019-03-29T00:43:46.780Z,19.00
2019-03-29T00:46:12.859Z,19.00
2019-03-29T00:48:38.908Z,19.00
2019-03-29T00:51:05.359Z,19.00
2019-03-29T00:53:31.444Z,19.00
2019-03-29T00:55:57.805Z,19.00
2019-03-29T00:58:23.879Z,18.90
2019-03-29T01:00:49.927Z,19.00
2019-03-29T01:03:15.972Z,18.90
2019-03-29T01:08:10.493Z,18.90
2019-03-29T01:13:03.397Z,18.90
2019-03-29T01:15:29.774Z,18.90
2019-03-29T01:17:55.832Z,18.90
2019-03-29T01:22:48.332Z,18.90
2019-03-29T01:25:14.371Z,18.90
2019-03-29T01:27:40.455Z,18.90
2019-03-29T01:30:08.080Z,18.90
2019-03-29T01:32:34.165Z,18.90
2019-03-29T01:35:00.362Z,18.90
2019-03-29T01:37:27.560Z,18.90
2019-03-29T01:39:53.645Z,18.90
2019-03-29T01:42:19.701Z,18.90
2019-03-29T01:44:46.038Z,18.80
2019-03-29T01:47:12.367Z,18.80
2019-03-29T01:49:39.516Z,18.80
2019-03-29T01:52:05.658Z,18.80
2019-03-29T01:54:32.088Z,18.80
2019-03-29T01:56:58.141Z,18.80
2019-03-29T01:59:24.194Z,18.80
2019-03-29T02:01:50.271Z,18.80
2019-03-29T02:04:16.315Z,18.80
2019-03-29T02:06:42.708Z,18.70
2019-03-29T02:09:09.028Z,18.70
2019-03-29T02:11:35.108Z,18.70
2019-03-29T02:21:23.015Z,18.70
2019-03-29T02:23:49.381Z,18.70
2019-03-29T02:26:15.801Z,18.70
2019-03-29T02:28:42.123Z,18.70
2019-03-29T02:33:34.989Z,18.70
2019-03-29T02:36:01.037Z,18.70
2019-03-29T02:38:27.448Z,18.70
2019-03-29T02:43:19.949Z,18.60
2019-03-29T02:45:46.030Z,18.60
2019-03-29T02:48:12.422Z,18.60
2019-03-29T02:50:38.870Z,18.60
2019-03-29T02:55:31.392Z,18.60
2019-03-29T02:57:57.441Z,18.60
2019-03-29T03:00:23.562Z,18.60
2019-03-29T03:02:49.681Z,18.60
2019-03-29T03:05:15.731Z,18.60
2019-03-29T03:07:41.809Z,18.60
2019-03-29T03:10:10.065Z,18.60
2019-03-29T03:12:36.232Z,18.50
2019-03-29T03:15:07.831Z,18.50
2019-03-29T03:20:04.183Z,18.50
2019-03-29T03:22:30.226Z,18.50
2019-03-29T03:24:56.305Z,18.50
2019-03-29T03:27:22.421Z,18.50
2019-03-29T03:29:48.766Z,18.50
2019-03-29T03:32:15.116Z,18.50
2019-03-29T03:34:41.307Z,18.50
2019-03-29T03:37:07.428Z,18.50
2019-03-29T03:39:33.532Z,18.50
2019-03-29T03:42:00.113Z,18.40
2019-03-29T03:44:26.156Z,18.40
2019-03-29T03:49:18.663Z,18.40
2019-03-29T03:51:45.753Z,18.40
2019-03-29T03:54:11.917Z,18.40
2019-03-29T03:56:38.466Z,18.40
2019-03-29T04:11:18.168Z,18.40
2019-03-29T04:13:44.553Z,18.40
2019-03-29T04:16:10.995Z,18.40
2019-03-29T04:18:37.063Z,18.40
2019-03-29T04:21:03.202Z,18.30
2019-03-29T04:23:29.309Z,18.30
2019-03-29T04:25:55.376Z,18.40
2019-03-29T04:28:21.458Z,18.30
2019-03-29T04:30:47.618Z,18.30
2019-03-29T04:33:13.759Z,18.30
2019-03-29T04:35:39.832Z,18.30
2019-03-29T04:40:32.613Z,18.30
2019-03-29T04:42:59.417Z,18.30
2019-03-29T04:45:25.538Z,18.30
2019-03-29T04:47:51.622Z,18.30
2019-03-29T04:50:18.008Z,18.30
2019-03-29T04:52:44.183Z,18.30
2019-03-29T04:55:10.231Z,18.30
2019-03-29T05:00:06.353Z,18.30
2019-03-29T05:04:58.908Z,18.40
2019-03-29T05:07:24.961Z,18.40
2019-03-29T05:09:51.084Z,18.40
2019-03-29T05:14:43.823Z,18.40
2019-03-29T05:17:09.900Z,18.40
2019-03-29T05:19:36.274Z,18.40
2019-03-29T05:24:29.142Z,18.40
2019-03-29T05:26:55.234Z,18.40
2019-03-29T05:29:21.280Z,18.40
2019-03-29T05:34:14.108Z,18.40
2019-03-29T05:36:40.496Z,18.40
2019-03-29T05:39:06.586Z,18.30
2019-03-29T05:41:32.645Z,18.40
2019-03-29T05:48:52.134Z,18.40
2019-03-29T05:51:18.556Z,18.30
2019-03-29T05:53:44.773Z,18.40
2019-03-29T05:58:37.279Z,18.40
2019-03-29T06:01:03.337Z,18.30
2019-03-29T06:03:29.940Z,18.40
2019-03-29T06:08:23.067Z,18.30
2019-03-29T06:10:49.848Z,18.40
2019-03-29T06:13:16.441Z,18.40
2019-03-29T06:15:42.515Z,18.30
2019-03-29T06:20:35.337Z,18.40
2019-03-29T06:23:01.383Z,18.40
2019-03-29T06:25:27.441Z,18.40
2019-03-29T06:27:53.512Z,18.40
2019-03-29T06:30:23.374Z,18.40
2019-03-29T06:32:49.448Z,18.50
2019-03-29T06:35:15.772Z,18.50
2019-03-29T06:37:44.164Z,18.50
2019-03-29T06:40:14.368Z,18.50
2019-03-29T06:42:40.425Z,18.50
2019-03-29T06:45:08.581Z,18.50
2019-03-29T06:47:35.005Z,18.50
2019-03-29T06:54:55.480Z,18.50
2019-03-29T06:59:48.673Z,18.50
2019-03-29T07:02:14.723Z,18.60
2019-03-29T07:07:07.216Z,18.60
2019-03-29T07:09:33.273Z,18.60
2019-03-29T07:11:59.351Z,18.60
2019-03-29T07:14:25.400Z,18.70
2019-03-29T07:19:17.904Z,18.70
2019-03-29T07:21:43.951Z,18.70
2019-03-29T07:29:03.021Z,18.70
2019-03-29T07:31:29.344Z,18.70
2019-03-29T07:33:55.677Z,18.60
2019-03-29T07:36:22.004Z,18.70
2019-03-29T07:38:48.063Z,18.70
2019-03-29T07:41:14.143Z,18.70
2019-03-29T07:43:40.199Z,18.70
2019-03-29T07:46:06.607Z,18.70
2019-03-29T07:48:32.935Z,18.70
2019-03-29T07:50:58.988Z,18.70
2019-03-29T07:53:25.315Z,18.70
2019-03-29T07:58:17.939Z,18.70
2019-03-29T08:00:43.999Z,18.70
2019-03-29T08:03:10.050Z,18.80
2019-03-29T08:05:36.138Z,18.70
2019-03-29T08:08:02.217Z,18.80
2019-03-29T08:10:31.312Z,18.80
2019-03-29T08:12:56.311Z,18.80
2019-03-29T08:15:22.401Z,18.80
2019-03-29T08:17:48.479Z,18.90
2019-03-29T08:20:38.202Z,18.90
2019-03-29T08:22:42.780Z,18.90
2019-03-29T08:25:09.828Z,18.90
2019-03-29T08:27:35.945Z,18.90
2019-03-29T08:30:04.535Z,19.00
2019-03-29T08:34:57.042Z,19.00
2019-03-29T08:39:49.812Z,19.00
2019-03-29T08:42:18.511Z,19.10
2019-03-29T08:44:44.460Z,19.10
2019-03-29T08:47:10.558Z,19.10
2019-03-29T08:49:36.605Z,19.10
2019-03-29T08:52:02.756Z,19.10
2019-03-29T08:54:28.863Z,19.20
2019-03-29T08:56:55.008Z,19.30
2019-03-29T08:59:21.696Z,19.30
2019-03-29T09:01:48.564Z,19.30
2019-03-29T09:04:14.647Z,19.30
2019-03-29T09:11:39.525Z,19.50
2019-03-29T09:14:05.599Z,19.50
2019-03-29T09:16:31.648Z,19.50
2019-03-29T09:18:57.992Z,19.50
2019-03-29T09:21:24.325Z,19.50
2019-03-29T09:23:50.408Z,19.50
2019-03-29T09:28:42.872Z,19.60
2019-03-29T09:31:09.851Z,19.70
2019-03-29T09:33:36.014Z,19.60
2019-03-29T09:36:05.010Z,19.70
2019-03-29T09:40:59.100Z,19.70
2019-03-29T09:45:53.985Z,19.80
2019-03-29T09:48:20.299Z,19.80
2019-03-29T09:50:50.466Z,19.90
2019-03-29T09:53:14.476Z,19.90
2019-03-29T09:55:40.557Z,19.90
2019-03-29T09:58:06.876Z,19.90
2019-03-29T10:02:59.811Z,20.00
2019-03-29T10:05:25.907Z,20.10
2019-03-29T10:07:51.956Z,20.10
2019-03-29T10:10:18.294Z,20.10
2019-03-29T10:12:44.371Z,20.10
2019-03-29T10:15:12.426Z,20.10
2019-03-29T10:22:32.665Z,20.20
2019-03-29T10:25:01.860Z,20.20
2019-03-29T10:27:26.905Z,20.20
2019-03-29T10:32:19.972Z,20.30
2019-03-29T10:34:46.056Z,20.40
2019-03-29T10:37:12.428Z,20.40
2019-03-29T10:39:38.874Z,20.40
2019-03-29T10:44:31.653Z,20.50
2019-03-29T10:46:57.734Z,20.60
2019-03-29T10:49:23.779Z,20.60
2019-03-29T10:56:43.472Z,20.70
2019-03-29T10:59:09.529Z,20.70
2019-03-29T11:01:35.929Z,20.80
2019-03-29T11:06:28.427Z,20.80
2019-03-29T11:08:54.515Z,20.90
2019-03-29T11:13:47.327Z,20.90
2019-03-29T11:18:40.544Z,21.00
2019-03-29T11:21:06.592Z,21.00
2019-03-29T11:23:32.681Z,21.00
2019-03-29T11:25:58.733Z,21.10
2019-03-29T11:30:51.243Z,21.20
2019-03-29T11:35:44.135Z,21.20
2019-03-29T11:40:37.060Z,21.30
2019-03-29T11:43:03.161Z,21.30
2019-03-29T11:45:31.000Z,21.30
2019-03-29T11:48:08.133Z,21.40
2019-03-29T11:50:28.890Z,21.40
2019-03-29T11:52:54.800Z,21.40
2019-03-29T11:55:20.984Z,21.50
2019-03-29T11:57:47.071Z,21.50
2019-03-29T12:00:16.135Z,21.50
2019-03-29T12:02:42.190Z,21.60
2019-03-29T12:05:08.391Z,21.70
2019-03-29T12:14:56.402Z,21.70
2019-03-29T12:17:22.699Z,21.80
2019-03-29T12:22:15.768Z,21.80
2019-03-29T12:29:35.378Z,21.90
2019-03-29T12:32:01.423Z,22.00
2019-03-29T12:34:27.532Z,22.00
2019-03-29T12:36:53.951Z,22.00
2019-03-29T12:39:20.053Z,22.10
2019-03-29T12:41:46.415Z,22.10
2019-03-29T12:44:12.552Z,22.20
2019-03-29T12:46:38.710Z,22.20
2019-03-29T12:51:31.230Z,22.20
2019-03-29T12:56:24.065Z,22.30
2019-03-29T12:58:50.176Z,22.30
2019-03-29T13:01:16.231Z,22.30
2019-03-29T13:03:42.440Z,22.30
2019-03-29T13:08:35.250Z,22.40
2019-03-29T13:11:01.741Z,22.50
2019-03-29T13:13:28.299Z,22.50
2019-03-29T13:15:54.445Z,22.50
2019-03-29T13:18:20.561Z,22.50
2019-03-29T13:20:46.880Z,22.50
2019-03-29T13:23:13.309Z,22.50
2019-03-29T13:25:40.507Z,22.60
2019-03-29T13:28:06.557Z,22.60
2019-03-29T13:30:33.200Z,22.60
2019-03-29T13:32:59.317Z,22.70
2019-03-29T13:35:25.360Z,22.70
2019-03-29T13:37:51.640Z,22.70
2019-03-29T13:42:46.931Z,22.80
2019-03-29T13:45:13.444Z,22.80
2019-03-29T13:47:39.608Z,22.80
2019-03-29T13:50:08.770Z,22.90
2019-03-29T13:52:34.812Z,22.90
2019-03-29T13:55:00.916Z,22.90
2019-03-29T13:59:54.012Z,22.90
2019-03-29T14:02:20.929Z,22.90
2019-03-29T14:04:47.216Z,23.00
2019-03-29T14:09:40.004Z,23.10
2019-03-29T14:12:06.059Z,23.10
2019-03-29T14:14:38.123Z,23.10
2019-03-29T14:17:00.437Z,23.10
2019-03-29T14:21:52.967Z,23.20
2019-03-29T14:24:19.089Z,23.20
2019-03-29T14:26:45.139Z,23.20
2019-03-29T14:29:11.256Z,23.20
2019-03-29T14:31:37.359Z,23.30
2019-03-29T14:34:03.415Z,23.30
2019-03-29T14:36:29.860Z,23.30
2019-03-29T14:38:56.189Z,23.30
2019-03-29T14:41:22.231Z,23.30
2019-03-29T14:43:48.355Z,23.30
2019-03-29T14:46:14.400Z,23.40
2019-03-29T14:48:40.788Z,23.40
2019-03-29T14:53:33.434Z,23.40
2019-03-29T14:55:59.858Z,23.40
2019-03-29T14:58:26.034Z,23.50
2019-03-29T15:00:52.328Z,23.50
2019-03-29T15:03:18.764Z,23.50
2019-03-29T15:05:45.091Z,23.50
2019-03-29T15:08:11.839Z,23.50
2019-03-29T15:10:38.147Z,23.50
2019-03-29T15:13:04.596Z,23.50
2019-03-29T15:15:31.801Z,23.60
2019-03-29T15:17:57.848Z,23.60
2019-03-29T15:20:23.915Z,23.60
2019-03-29T15:22:50.052Z,23.60
2019-03-29T15:25:16.099Z,23.60
2019-03-29T15:27:42.209Z,23.60
2019-03-29T15:30:09.829Z,23.60
2019-03-29T15:32:36.252Z,23.70
2019-03-29T15:37:29.812Z,23.70
2019-03-29T15:39:56.317Z,23.70
2019-03-29T15:42:22.431Z,23.70
2019-03-29T15:47:15.256Z,23.70
2019-03-29T15:52:09.687Z,23.70
2019-03-29T15:54:35.984Z,23.70
2019-03-29T15:57:02.096Z,23.70
2019-03-29T15:59:28.259Z,23.70
2019-03-29T16:01:54.317Z,23.70
2019-03-29T16:04:20.373Z,23.70
2019-03-29T16:09:13.348Z,23.60
2019-03-29T16:11:39.679Z,23.60
2019-03-29T16:14:05.730Z,23.60
2019-03-29T16:16:31.835Z,23.60
2019-03-29T16:18:57.908Z,23.60
2019-03-29T16:21:24.017Z,23.60
2019-03-29T16:23:50.059Z,23.60
2019-03-29T16:26:16.428Z,23.50
2019-03-29T16:28:42.540Z,23.60
2019-03-29T16:31:08.588Z,23.60
2019-03-29T16:33:34.637Z,23.50
2019-03-29T16:36:00.756Z,23.50
2019-03-29T16:38:26.833Z,23.40
2019-03-29T16:40:52.885Z,23.40
2019-03-29T16:43:19.001Z,23.40
2019-03-29T16:45:48.180Z,23.40
2019-03-29T16:48:13.068Z,23.40
2019-03-29T16:50:40.476Z,23.40
2019-03-29T16:53:06.776Z,23.40
2019-03-29T16:55:32.880Z,23.30
2019-03-29T16:57:59.235Z,23.30
2019-03-29T17:02:51.925Z,23.30
2019-03-29T17:05:18.035Z,23.30
2019-03-29T17:07:44.084Z,23.20
2019-03-29T17:12:37.852Z,23.20
2019-03-29T17:15:05.403Z,23.20
2019-03-29T17:17:31.541Z,23.20
2019-03-29T17:19:57.652Z,23.20
2019-03-29T17:22:23.701Z,23.10
2019-03-29T17:24:56.937Z,23.10
2019-03-29T17:27:17.780Z,23.10
2019-03-29T17:32:10.716Z,23.00
2019-03-29T17:34:36.783Z,23.00
2019-03-29T17:37:02.831Z,23.00
2019-03-29T17:39:28.939Z,23.00
2019-03-29T17:41:54.992Z,23.00
2019-03-29T17:49:13.992Z,22.90
2019-03-29T17:56:33.127Z,22.80
2019-03-29T18:03:52.164Z,22.80
2019-03-29T18:11:11.378Z,22.70
2019-03-29T18:13:37.808Z,22.70
2019-03-29T18:16:03.861Z,22.70
2019-03-29T18:18:29.983Z,22.70
2019-03-29T18:20:56.284Z,22.70
2019-03-29T18:23:24.966Z,22.60
2019-03-29T18:25:50.583Z,22.60
2019-03-29T18:28:16.632Z,22.60
2019-03-29T18:35:38.265Z,22.60
2019-03-29T18:38:05.101Z,22.60
2019-03-29T18:40:31.204Z,22.50
2019-03-29T18:42:57.262Z,22.50
2019-03-29T18:45:23.708Z,22.50
2019-03-29T18:50:16.545Z,22.50
2019-03-29T18:52:42.990Z,22.50
2019-03-29T18:55:10.339Z,22.40
2019-03-29T19:02:33.572Z,22.40
2019-03-29T19:07:27.800Z,22.40
2019-03-29T19:09:53.858Z,22.30
2019-03-29T19:12:20.191Z,22.30
2019-03-29T19:14:46.245Z,22.30
2019-03-29T19:17:12.624Z,22.30
2019-03-29T19:19:39.057Z,22.30
2019-03-29T19:24:32.122Z,22.30
2019-03-29T19:29:24.723Z,22.20
2019-03-29T19:31:50.781Z,22.20
2019-03-29T19:34:16.824Z,22.20
2019-03-29T19:36:43.365Z,22.20
2019-03-29T19:39:09.411Z,22.10
2019-03-29T19:41:35.535Z,22.10
2019-03-29T19:44:01.978Z,22.10
2019-03-29T19:46:28.106Z,22.10
2019-03-29T19:48:54.216Z,22.10
2019-03-29T19:51:20.273Z,22.00
2019-03-29T19:53:46.749Z,22.00
2019-03-29T19:56:13.597Z,22.00
2019-03-29T19:58:39.832Z,22.00
2019-03-29T20:01:07.591Z,22.00
2019-03-29T20:03:34.017Z,22.00
2019-03-29T20:06:00.167Z,22.00
2019-03-29T20:10:52.711Z,22.00
2019-03-29T20:13:19.028Z,21.90
2019-03-29T20:15:45.243Z,21.90
2019-03-29T20:18:11.293Z,21.90
2019-03-29T20:20:38.945Z,21.90
2019-03-29T20:32:52.848Z,21.80
2019-03-29T20:35:18.964Z,21.80
2019-03-29T20:37:45.336Z,21.80
2019-03-29T20:40:13.573Z,21.70
2019-03-29T20:42:40.028Z,21.70
2019-03-29T20:45:07.584Z,21.70
2019-03-29T20:47:42.030Z,21.70
2019-03-29T20:52:30.071Z,21.70
2019-03-29T20:54:56.194Z,21.70
2019-03-29T20:57:22.343Z,21.60
2019-03-29T20:59:48.716Z,21.60
2019-03-29T21:02:14.905Z,21.60
2019-03-29T21:04:41.271Z,21.60
2019-03-29T21:07:07.333Z,21.50
2019-03-29T21:09:33.736Z,21.50
2019-03-29T21:11:59.783Z,21.60
2019-03-29T21:16:52.625Z,21.50
2019-03-29T21:19:18.671Z,21.50
2019-03-29T21:21:44.791Z,21.40
2019-03-29T21:24:10.836Z,21.40
2019-03-29T21:29:03.733Z,21.40
2019-03-29T21:33:56.342Z,21.40
2019-03-29T21:36:22.456Z,21.40
2019-03-29T21:38:48.876Z,21.30
2019-03-29T21:41:15.197Z,21.30
2019-03-29T21:46:08.061Z,21.30
2019-03-29T21:48:34.112Z,21.30
2019-03-29T21:51:00.159Z,21.30
2019-03-29T21:53:26.268Z,21.30
2019-03-29T21:55:52.564Z,21.20
2019-03-29T21:58:18.671Z,21.20
2019-03-29T22:00:44.715Z,21.20
2019-03-29T22:03:10.832Z,21.20
2019-03-29T22:05:36.935Z,21.20
2019-03-29T22:10:29.425Z,21.20
2019-03-29T22:15:21.932Z,21.10
2019-03-29T22:17:47.976Z,21.10
2019-03-29T22:25:09.345Z,21.10
2019-03-29T22:27:36.712Z,21.10
2019-03-29T22:30:06.660Z,21.00
2019-03-29T22:34:59.500Z,21.00
2019-03-29T22:37:25.904Z,21.10
2019-03-29T22:39:52.238Z,21.00
2019-03-29T22:42:18.559Z,21.00
2019-03-29T22:44:44.621Z,21.00
2019-03-29T22:47:10.915Z,21.00
2019-03-29T22:49:36.991Z,21.00
2019-03-29T22:52:03.067Z,20.90
2019-03-29T22:54:29.496Z,20.90
2019-03-29T22:56:55.743Z,20.90
2019-03-29T22:59:21.835Z,20.90
2019-03-29T23:04:15.476Z,20.90
2019-03-29T23:06:41.550Z,20.90
2019-03-29T23:09:11.591Z,20.80
2019-03-29T23:11:36.907Z,20.80
2019-03-29T23:14:04.883Z,20.80
2019-03-29T23:16:31.005Z,20.80
2019-03-29T23:19:06.400Z,20.80
2019-03-29T23:23:52.376Z,20.80
2019-03-29T23:26:18.747Z,20.80
2019-03-29T23:28:44.807Z,20.80
2019-03-29T23:31:10.892Z,20.70
2019-03-29T23:33:37.233Z,20.70
2019-03-29T23:38:30.027Z,20.70
2019-03-29T23:40:56.067Z,20.70
2019-03-29T23:43:22.204Z,20.70
2019-03-29T23:45:48.568Z,20.70
2019-03-29T23:48:14.896Z,20.60
2019-03-29T23:50:40.987Z,20.60
2019-03-29T23:53:07.035Z,20.60
2019-03-29T23:57:59.881Z,20.60
